Reeds Cross Roads, North Carolina
Current Conditions -  °F | °C
As of 11:15 AM on Thursday 18 Dec 2014 (Local Time) from KEXX Reporting Station
Broken Clouds Broken Clouds  
Wind Chill: 45°   Ceiling: 11000
Heat Index: 45°   Visibility: 10mi
Dew Point: 25°   Wind: 0mph
Humidity: 46%   Direction: NA
Pressure: 30.17"   Gusts: NA
Location:  35.7974°N, 80.2541°W
Report Text: KEXX 181615Z AUTO 00000KT 10SM BKN110 07/M04 A3017 RMK AO2 T00701038
Loading
Personal Weather Stations






























Interactive Weather Map New forecast layout! Learn more

10-Day Weather Forecast

Advertisements
Track Severe Weather on mobile